createdAt,value
2022-11-23T00:00:10.648Z,7.55
2022-11-23T00:01:10.619Z,7.55
2022-11-23T00:02:10.624Z,7.53
2022-11-23T00:03:10.594Z,7.53
2022-11-23T00:04:10.582Z,7.50
2022-11-23T00:05:10.551Z,7.49
2022-11-23T00:06:10.569Z,7.46
2022-11-23T00:07:10.565Z,7.48
2022-11-23T00:08:10.584Z,7.45
2022-11-23T00:09:10.494Z,7.43
2022-11-23T00:10:10.511Z,7.43
2022-11-23T00:11:10.461Z,7.42
2022-11-23T00:12:10.473Z,7.42
2022-11-23T00:13:10.452Z,7.39
2022-11-23T00:14:10.441Z,7.39
2022-11-23T00:15:10.410Z,7.35
2022-11-23T00:16:10.430Z,7.32
2022-11-23T00:17:10.374Z,7.31
2022-11-23T00:18:10.410Z,7.30
2022-11-23T00:19:10.363Z,7.28
2022-11-23T00:20:10.376Z,7.30
2022-11-23T00:21:10.333Z,7.27
2022-11-23T00:22:10.373Z,7.25
2022-11-23T00:23:10.304Z,7.24
2022-11-23T00:24:10.313Z,7.24
2022-11-23T00:25:10.320Z,7.23
2022-11-23T00:26:10.289Z,7.23
2022-11-23T00:27:10.271Z,7.21
2022-11-23T00:28:10.269Z,7.21
2022-11-23T00:29:10.229Z,7.20
2022-11-23T00:30:10.261Z,7.21
2022-11-23T00:31:10.205Z,7.21
2022-11-23T00:32:10.211Z,7.21
2022-11-23T00:33:10.187Z,7.21
2022-11-23T00:34:10.190Z,7.23
2022-11-23T00:35:10.182Z,7.21
2022-11-23T00:36:10.174Z,7.21
2022-11-23T00:37:10.131Z,7.21
2022-11-23T00:38:10.133Z,7.21
2022-11-23T00:39:10.092Z,7.21
2022-11-23T00:40:10.159Z,7.21
2022-11-23T00:41:10.074Z,7.20
2022-11-23T00:42:10.095Z,7.21
2022-11-23T00:43:10.059Z,7.23
2022-11-23T00:44:10.075Z,7.21
2022-11-23T00:45:10.033Z,7.21
2022-11-23T00:46:10.064Z,7.21
2022-11-23T00:47:10.002Z,7.20
2022-11-23T00:48:10.005Z,7.21
2022-11-23T00:49:09.987Z,7.21
2022-11-23T00:50:09.994Z,7.20
2022-11-23T00:51:09.951Z,7.20
2022-11-23T00:52:09.969Z,7.20
2022-11-23T00:53:09.911Z,7.21
2022-11-23T00:54:09.952Z,7.21
2022-11-23T00:55:09.907Z,7.23
2022-11-23T00:56:09.902Z,7.23
2022-11-23T00:57:09.870Z,7.23
2022-11-23T00:58:09.906Z,7.20
2022-11-23T00:59:09.837Z,7.17
2022-11-23T01:00:09.862Z,7.16
2022-11-23T01:01:09.933Z,7.15
2022-11-23T01:02:09.837Z,7.13
2022-11-23T01:03:09.828Z,7.10
2022-11-23T01:04:09.804Z,7.10
2022-11-23T01:05:09.768Z,7.07
2022-11-23T01:06:09.781Z,7.05
2022-11-23T01:07:09.770Z,7.06
2022-11-23T01:08:09.773Z,7.03
2022-11-23T01:09:09.704Z,7.02
2022-11-23T01:10:09.712Z,6.98
2022-11-23T01:11:09.673Z,6.98
2022-11-23T01:12:09.724Z,6.97
2022-11-23T01:13:09.677Z,6.95
2022-11-23T01:14:09.705Z,6.95
2022-11-23T01:15:09.625Z,6.92
2022-11-23T01:16:09.644Z,6.89
2022-11-23T01:17:09.631Z,6.89
2022-11-23T01:18:09.661Z,6.89
2022-11-23T01:19:09.584Z,6.89
2022-11-23T01:20:09.613Z,6.89
2022-11-23T01:21:09.556Z,6.87
2022-11-23T01:22:09.571Z,6.88
2022-11-23T01:23:09.533Z,6.88
2022-11-23T01:24:09.558Z,6.91
2022-11-23T01:25:09.511Z,6.89
2022-11-23T01:26:09.500Z,6.91
2022-11-23T01:27:09.486Z,6.94
2022-11-23T01:28:09.485Z,6.95
2022-11-23T01:29:09.482Z,6.95
2022-11-23T01:30:09.475Z,6.97
2022-11-23T01:31:09.425Z,6.98
2022-11-23T01:32:09.454Z,6.99
2022-11-23T01:33:09.395Z,6.99
2022-11-23T01:34:09.404Z,7.02
2022-11-23T01:35:09.379Z,7.03
2022-11-23T01:36:09.380Z,7.03
2022-11-23T01:37:09.367Z,7.03
2022-11-23T01:38:13.733Z,7.07
2022-11-23T01:39:09.339Z,7.09
2022-11-23T01:40:09.337Z,7.10
2022-11-23T01:41:09.288Z,7.12
2022-11-23T01:42:11.828Z,7.15
2022-11-23T01:43:09.290Z,7.16
2022-11-23T01:44:09.285Z,7.16
2022-11-23T01:45:09.480Z,7.16
2022-11-23T01:46:09.260Z,7.17
2022-11-23T01:47:09.221Z,7.17
2022-11-23T01:48:09.263Z,7.21
2022-11-23T01:49:09.201Z,7.21
2022-11-23T01:50:09.223Z,7.21
2022-11-23T01:51:09.169Z,7.23
2022-11-23T01:52:09.185Z,7.23
2022-11-23T01:53:09.186Z,7.24
2022-11-23T01:54:09.172Z,7.24
2022-11-23T01:55:09.133Z,7.25
2022-11-23T01:56:09.123Z,7.25
2022-11-23T01:57:09.094Z,7.27
2022-11-23T01:58:09.117Z,7.28
2022-11-23T01:59:09.059Z,7.30
2022-11-23T02:00:09.068Z,7.31
2022-11-23T02:01:09.087Z,7.34
2022-11-23T02:02:09.046Z,7.35
2022-11-23T02:03:09.019Z,7.37
2022-11-23T02:04:09.028Z,7.39
2022-11-23T02:05:09.041Z,7.40
2022-11-23T02:06:09.013Z,7.39
2022-11-23T02:07:09.029Z,7.40
2022-11-23T02:08:08.999Z,7.42
2022-11-23T02:09:08.929Z,7.42
2022-11-23T02:10:08.985Z,7.43
2022-11-23T02:11:08.917Z,7.42
2022-11-23T02:12:08.920Z,7.43
2022-11-23T02:13:08.881Z,7.43
2022-11-23T02:14:08.902Z,7.45
2022-11-23T02:15:08.890Z,7.45
2022-11-23T02:16:08.884Z,7.48
2022-11-23T02:17:08.830Z,7.46
2022-11-23T02:18:08.850Z,7.46
2022-11-23T02:19:08.815Z,7.46
2022-11-23T02:20:08.841Z,7.45
2022-11-23T02:21:08.785Z,7.46
2022-11-23T02:22:08.802Z,7.49
2022-11-23T02:23:08.740Z,7.49
2022-11-23T02:24:08.763Z,7.49
2022-11-23T02:25:08.715Z,7.49
2022-11-23T02:26:08.763Z,7.52
2022-11-23T02:27:08.725Z,7.50
2022-11-23T02:28:08.714Z,7.53
2022-11-23T02:29:08.686Z,7.53
2022-11-23T02:30:08.695Z,7.55
2022-11-23T02:31:08.653Z,7.53
2022-11-23T02:32:08.701Z,7.55
2022-11-23T02:33:08.660Z,7.53
2022-11-23T02:34:08.660Z,7.53
2022-11-23T02:35:08.596Z,7.52
2022-11-23T02:36:08.669Z,7.53
2022-11-23T02:37:08.585Z,7.52
2022-11-23T02:38:08.580Z,7.53
2022-11-23T02:39:08.556Z,7.55
2022-11-23T02:40:08.543Z,7.53
2022-11-23T02:41:08.621Z,7.53
2022-11-23T02:42:08.498Z,7.52
2022-11-23T02:43:08.530Z,7.52
2022-11-23T02:44:08.507Z,7.50
2022-11-23T02:45:08.487Z,7.52
2022-11-23T02:46:08.557Z,7.52
2022-11-23T02:47:08.519Z,7.52
2022-11-23T02:48:08.444Z,7.52
2022-11-23T02:49:08.460Z,7.50
2022-11-23T02:50:08.409Z,7.49
2022-11-23T02:51:08.405Z,7.48
2022-11-23T02:52:08.372Z,7.50
2022-11-23T02:53:08.415Z,7.48
2022-11-23T02:54:08.365Z,7.48
2022-11-23T02:55:08.377Z,7.46
2022-11-23T02:56:08.324Z,7.46
2022-11-23T02:57:08.352Z,7.46
2022-11-23T02:58:08.303Z,7.45
2022-11-23T02:59:08.313Z,7.46
2022-11-23T03:00:08.300Z,7.45
2022-11-23T03:01:08.420Z,7.45
2022-11-23T03:02:08.252Z,7.43
2022-11-23T03:03:08.263Z,7.42
2022-11-23T03:04:08.233Z,7.42
2022-11-23T03:05:08.243Z,7.40
2022-11-23T03:06:08.232Z,7.42
2022-11-23T03:07:08.249Z,7.39
2022-11-23T03:08:08.163Z,7.40
2022-11-23T03:09:08.180Z,7.37
2022-11-23T03:10:08.155Z,7.37
2022-11-23T03:11:08.185Z,7.35
2022-11-23T03:12:08.116Z,7.37
2022-11-23T03:13:08.119Z,7.37
2022-11-23T03:14:08.097Z,7.37
2022-11-23T03:15:08.150Z,7.35
2022-11-23T03:16:08.104Z,7.37
2022-11-23T03:17:08.078Z,7.37
2022-11-23T03:18:08.035Z,7.37
2022-11-23T03:19:08.066Z,7.39
2022-11-23T03:20:08.075Z,7.39
2022-11-23T03:21:08.045Z,7.39
2022-11-23T03:22:08.011Z,7.35
2022-11-23T03:23:08.014Z,7.37
2022-11-23T03:24:07.957Z,7.34
2022-11-23T03:25:08.004Z,7.31
2022-11-23T03:26:12.629Z,7.32
2022-11-23T03:27:07.946Z,7.32
2022-11-23T03:28:07.935Z,7.31
2022-11-23T03:29:07.921Z,7.30
2022-11-23T03:30:07.888Z,7.28
2022-11-23T03:31:07.910Z,7.28
2022-11-23T03:32:07.852Z,7.27
2022-11-23T03:33:07.864Z,7.24
2022-11-23T03:34:07.830Z,7.25
2022-11-23T03:35:07.859Z,7.23
2022-11-23T03:36:07.809Z,7.20
2022-11-23T03:37:07.836Z,7.16
2022-11-23T03:38:07.799Z,7.17
2022-11-23T03:39:07.786Z,7.15
2022-11-23T03:40:07.759Z,7.13
2022-11-23T03:41:07.776Z,7.12
2022-11-23T03:42:07.754Z,7.13
2022-11-23T03:43:07.731Z,7.12
2022-11-23T03:44:07.692Z,7.09
2022-11-23T03:45:07.752Z,7.09
2022-11-23T03:46:07.686Z,7.09
2022-11-23T03:47:07.695Z,7.10
2022-11-23T03:48:07.672Z,7.10
2022-11-23T03:49:07.673Z,7.09
2022-11-23T03:50:07.623Z,7.09
2022-11-23T03:51:07.637Z,7.09
2022-11-23T03:52:07.615Z,7.07
2022-11-23T03:53:07.658Z,7.07
2022-11-23T03:54:07.575Z,7.06
2022-11-23T03:55:07.588Z,7.06
2022-11-23T03:56:07.549Z,7.03
2022-11-23T03:57:07.604Z,7.03
2022-11-23T03:58:07.535Z,7.02
2022-11-23T03:59:07.528Z,7.02
2022-11-23T04:00:07.497Z,6.98
2022-11-23T04:01:07.585Z,6.99
2022-11-23T04:02:07.491Z,6.99
2022-11-23T04:03:07.497Z,6.97
2022-11-23T04:04:07.435Z,6.98
2022-11-23T04:05:07.459Z,6.98
2022-11-23T04:06:07.417Z,6.97
2022-11-23T04:07:07.454Z,6.95
2022-11-23T04:08:07.414Z,6.94
2022-11-23T04:09:07.395Z,6.95
2022-11-23T04:10:07.366Z,6.94
2022-11-23T04:11:07.413Z,6.92
2022-11-23T04:12:07.352Z,6.92
2022-11-23T04:13:07.369Z,6.92
2022-11-23T04:14:07.312Z,6.91
2022-11-23T04:15:07.326Z,6.91
2022-11-23T04:16:07.365Z,6.89
2022-11-23T04:17:07.288Z,6.88
2022-11-23T04:18:07.287Z,6.87
2022-11-23T04:19:07.306Z,6.84
2022-11-23T04:20:07.243Z,6.84
2022-11-23T04:21:07.236Z,6.80
2022-11-23T04:22:07.220Z,6.77
2022-11-23T04:23:12.840Z,6.73
2022-11-23T04:24:07.204Z,6.70
2022-11-23T04:25:07.225Z,6.66
2022-11-23T04:26:07.149Z,6.61
2022-11-23T04:27:07.168Z,6.58
2022-11-23T04:28:07.133Z,6.55
2022-11-23T04:29:07.192Z,6.54
2022-11-23T04:30:07.132Z,6.51
2022-11-23T04:31:07.115Z,6.48
2022-11-23T04:32:07.084Z,6.44
2022-11-23T04:33:07.133Z,6.46
2022-11-23T04:34:07.070Z,6.44
2022-11-23T04:35:07.089Z,6.44
2022-11-23T04:36:07.022Z,6.41
2022-11-23T04:37:12.900Z,6.40
2022-11-23T04:38:07.009Z,6.37
2022-11-23T04:39:07.013Z,6.36
2022-11-23T04:40:06.998Z,6.36
2022-11-23T04:41:06.988Z,6.34
2022-11-23T04:42:06.953Z,6.34
2022-11-23T04:43:06.958Z,6.33
2022-11-23T04:44:06.927Z,6.31
2022-11-23T04:45:06.933Z,6.30
2022-11-23T04:46:06.927Z,6.33
2022-11-23T04:47:06.924Z,6.31
2022-11-23T04:48:06.908Z,6.31
2022-11-23T04:49:06.915Z,6.33
2022-11-23T04:50:06.857Z,6.33
2022-11-23T04:51:06.866Z,6.36
2022-11-23T04:52:06.844Z,6.34
2022-11-23T04:53:06.825Z,6.33
2022-11-23T04:54:06.790Z,6.31
2022-11-23T04:55:06.823Z,6.30
2022-11-23T04:56:06.796Z,6.31
2022-11-23T04:57:06.802Z,6.30
2022-11-23T04:58:06.748Z,6.30
2022-11-23T04:59:06.754Z,6.28
2022-11-23T05:00:06.724Z,6.27
2022-11-23T05:01:06.767Z,6.27
2022-11-23T05:02:06.726Z,6.22
2022-11-23T05:03:06.704Z,6.19
2022-11-23T05:04:06.667Z,6.17
2022-11-23T05:05:06.670Z,6.14
2022-11-23T05:06:07.337Z,6.12
2022-11-23T05:07:06.699Z,6.12
2022-11-23T05:08:06.629Z,6.09
2022-11-23T05:09:06.681Z,6.09
2022-11-23T05:10:06.616Z,6.09
2022-11-23T05:11:06.611Z,6.08
2022-11-23T05:12:06.559Z,6.04
2022-11-23T05:13:06.605Z,5.99
2022-11-23T05:14:06.540Z,5.91
2022-11-23T05:15:06.564Z,5.83
2022-11-23T05:16:06.514Z,5.76
2022-11-23T05:17:06.520Z,5.72
2022-11-23T05:18:06.499Z,5.58
2022-11-23T05:19:06.511Z,5.39
2022-11-23T05:20:06.484Z,5.31
2022-11-23T05:21:06.488Z,5.25
2022-11-23T05:22:06.460Z,5.20
2022-11-23T05:23:06.456Z,5.12
2022-11-23T05:24:06.411Z,5.12
2022-11-23T05:25:06.434Z,5.10
2022-11-23T05:26:06.387Z,5.07
2022-11-23T05:27:06.397Z,5.06
2022-11-23T05:28:23.268Z,5.06
2022-11-23T05:29:06.391Z,5.06
2022-11-23T05:30:06.348Z,5.06
2022-11-23T05:31:06.341Z,5.07
2022-11-23T05:32:06.314Z,5.07
2022-11-23T05:33:06.328Z,5.09
2022-11-23T05:34:06.288Z,5.12
2022-11-23T05:35:06.269Z,5.13
2022-11-23T05:36:06.257Z,5.17
2022-11-23T05:37:06.280Z,5.17
2022-11-23T05:38:06.242Z,5.15
2022-11-23T05:39:06.238Z,5.17
2022-11-23T05:40:06.200Z,5.15
2022-11-23T05:41:06.278Z,5.17
2022-11-23T05:42:06.184Z,5.18
2022-11-23T05:43:06.188Z,5.17
2022-11-23T05:44:06.152Z,5.13
2022-11-23T05:45:11.118Z,5.10
2022-11-23T05:46:06.214Z,5.04
2022-11-23T05:47:06.160Z,4.94
2022-11-23T05:48:06.108Z,4.82
2022-11-23T05:49:06.104Z,4.77
2022-11-23T05:50:06.106Z,4.70
2022-11-23T05:51:06.114Z,4.66
2022-11-23T05:52:06.042Z,4.65
2022-11-23T05:53:06.081Z,4.62
2022-11-23T05:54:06.021Z,4.62
2022-11-23T05:55:06.040Z,4.62
2022-11-23T05:56:06.053Z,4.63
2022-11-23T05:57:06.016Z,4.62
2022-11-23T05:58:05.970Z,4.62
2022-11-23T05:59:06.009Z,4.58
2022-11-23T06:00:05.949Z,4.55
2022-11-23T06:01:06.154Z,4.55
2022-11-23T06:02:05.911Z,4.55
2022-11-23T06:03:05.959Z,4.54
2022-11-23T06:04:05.947Z,4.54
2022-11-23T06:05:05.986Z,4.52
2022-11-23T06:06:05.858Z,4.52
2022-11-23T06:07:06.027Z,4.50
2022-11-23T06:08:05.849Z,4.52
2022-11-23T06:09:05.865Z,4.51
2022-11-23T06:10:05.973Z,4.48
2022-11-23T06:11:05.811Z,4.47
2022-11-23T06:12:05.793Z,4.44
2022-11-23T06:13:05.798Z,4.44
2022-11-23T06:14:09.988Z,4.42
2022-11-23T06:15:05.799Z,4.37
2022-11-23T06:16:05.736Z,4.40
2022-11-23T06:17:05.753Z,4.37
2022-11-23T06:18:05.703Z,4.41
2022-11-23T06:19:05.713Z,4.44
2022-11-23T06:20:05.721Z,4.47
2022-11-23T06:21:05.695Z,4.44
2022-11-23T06:22:05.669Z,4.42
2022-11-23T06:23:05.658Z,4.42
2022-11-23T06:24:05.679Z,4.41
2022-11-23T06:25:05.643Z,4.40
2022-11-23T06:26:05.606Z,4.36
2022-11-23T06:27:05.643Z,4.36
2022-11-23T06:28:05.567Z,4.33
2022-11-23T06:29:05.585Z,4.32
2022-11-23T06:30:05.555Z,4.32
2022-11-23T06:31:05.569Z,4.30
2022-11-23T06:32:05.536Z,4.29
2022-11-23T06:33:05.571Z,4.26
2022-11-23T06:34:05.529Z,4.23
2022-11-23T06:35:05.556Z,4.22
2022-11-23T06:36:05.495Z,4.20
2022-11-23T06:37:05.484Z,4.18
2022-11-23T06:38:05.459Z,4.14
2022-11-23T06:39:05.457Z,4.11
2022-11-23T06:40:05.413Z,4.06
2022-11-23T06:41:05.476Z,4.06
2022-11-23T06:42:23.717Z,4.04
2022-11-23T06:43:05.408Z,4.02
2022-11-23T06:44:05.358Z,4.00
2022-11-23T06:45:05.376Z,4.00
2022-11-23T06:46:05.386Z,3.98
2022-11-23T06:47:05.367Z,4.02
2022-11-23T06:48:05.326Z,4.02
2022-11-23T06:49:05.337Z,4.06
2022-11-23T06:50:05.310Z,4.05
2022-11-23T06:51:05.332Z,4.06
2022-11-23T06:52:05.254Z,4.06
2022-11-23T06:53:05.284Z,4.06
2022-11-23T06:54:05.227Z,4.06
2022-11-23T06:55:05.249Z,4.11
2022-11-23T06:56:05.271Z,4.12
2022-11-23T06:57:05.231Z,4.14
2022-11-23T06:58:05.218Z,4.14
2022-11-23T06:59:05.165Z,4.16
2022-11-23T07:00:05.189Z,4.18
2022-11-23T07:01:05.190Z,4.16
2022-11-23T07:02:05.153Z,4.22
2022-11-23T07:03:05.138Z,4.24
2022-11-23T07:04:05.138Z,4.27
2022-11-23T07:05:05.115Z,4.29
2022-11-23T07:06:05.108Z,4.30
2022-11-23T07:07:05.181Z,4.30
2022-11-23T07:08:05.091Z,4.29
2022-11-23T07:09:05.104Z,4.30
2022-11-23T07:10:07.238Z,4.29
2022-11-23T07:11:05.085Z,4.29
2022-11-23T07:12:05.044Z,4.30
2022-11-23T07:13:04.996Z,4.34
2022-11-23T07:14:05.007Z,4.37
2022-11-23T07:15:04.985Z,4.40
2022-11-23T07:16:05.020Z,4.41
2022-11-23T07:17:04.942Z,4.42
2022-11-23T07:18:04.947Z,4.42
2022-11-23T07:19:04.919Z,4.44
2022-11-23T07:20:04.943Z,4.45
2022-11-23T07:21:04.894Z,4.45
2022-11-23T07:22:04.929Z,4.47
2022-11-23T07:23:04.855Z,4.45
2022-11-23T07:24:04.867Z,4.47
2022-11-23T07:25:04.869Z,4.45
2022-11-23T07:26:04.888Z,4.44
2022-11-23T07:27:04.863Z,4.44
2022-11-23T07:28:04.839Z,4.40
2022-11-23T07:29:04.806Z,4.37
2022-11-23T07:30:04.783Z,4.33
2022-11-23T07:31:04.751Z,4.30
2022-11-23T07:32:04.774Z,4.24
2022-11-23T07:33:04.747Z,4.23
2022-11-23T07:34:04.746Z,4.22
2022-11-23T07:35:04.698Z,4.20
2022-11-23T07:36:04.714Z,4.18
2022-11-23T07:37:04.687Z,4.18
2022-11-23T07:38:04.717Z,4.16
2022-11-23T07:39:04.643Z,4.15
2022-11-23T07:40:05.160Z,4.14
2022-11-23T07:41:04.652Z,4.14
2022-11-23T07:42:31.187Z,4.15
2022-11-23T07:43:04.610Z,4.15
2022-11-23T07:44:04.621Z,4.16
2022-11-23T07:45:04.572Z,4.22
2022-11-23T07:46:04.612Z,4.24
2022-11-23T07:47:04.531Z,4.29
2022-11-23T07:48:04.585Z,4.34
2022-11-23T07:49:04.560Z,4.41
2022-11-23T07:50:04.521Z,4.47
2022-11-23T07:51:04.493Z,4.48
2022-11-23T07:52:04.509Z,4.52
2022-11-23T07:53:04.463Z,4.59
2022-11-23T07:54:04.508Z,4.63
2022-11-23T07:55:04.523Z,4.67
2022-11-23T07:56:04.455Z,4.72
2022-11-23T07:57:04.401Z,4.78
2022-11-23T07:58:04.436Z,4.82
2022-11-23T07:59:04.393Z,4.86
2022-11-23T08:00:04.439Z,4.88
2022-11-23T08:01:04.363Z,4.92
2022-11-23T08:02:04.465Z,4.94
2022-11-23T08:03:26.748Z,5.00
2022-11-23T08:04:04.372Z,5.04
2022-11-23T08:05:04.339Z,5.09
2022-11-23T08:06:04.317Z,5.15
2022-11-23T08:07:04.453Z,5.21
2022-11-23T08:08:04.326Z,5.27
2022-11-23T08:09:04.254Z,5.30
2022-11-23T08:10:04.255Z,5.33
2022-11-23T08:11:04.227Z,5.38
2022-11-23T08:12:04.286Z,5.40
2022-11-23T08:13:04.236Z,5.43
2022-11-23T08:14:04.229Z,5.45
2022-11-23T08:15:04.162Z,5.49
2022-11-23T08:16:04.191Z,5.54
2022-11-23T08:17:04.159Z,5.60
2022-11-23T08:18:04.184Z,5.65
2022-11-23T08:19:04.140Z,5.74
2022-11-23T08:20:04.147Z,5.82
2022-11-23T08:21:04.087Z,5.91
2022-11-23T08:22:04.146Z,5.99
2022-11-23T08:23:04.093Z,6.12
2022-11-23T08:24:04.107Z,6.21
2022-11-23T08:25:04.051Z,6.31
2022-11-23T08:26:06.701Z,6.41
2022-11-23T08:27:04.014Z,6.51
2022-11-23T08:28:04.081Z,6.61
2022-11-23T08:29:04.024Z,6.71
2022-11-23T08:30:04.016Z,6.81
2022-11-23T08:31:03.983Z,6.95
2022-11-23T08:32:04.009Z,7.12
2022-11-23T08:33:03.985Z,7.24
2022-11-23T08:34:04.067Z,7.35
2022-11-23T08:35:03.929Z,7.49
2022-11-23T08:36:03.943Z,7.61
2022-11-23T08:37:03.888Z,7.75
2022-11-23T08:38:03.932Z,7.85
2022-11-23T08:39:03.961Z,7.95
2022-11-23T08:40:03.873Z,8.01
2022-11-23T08:41:03.865Z,8.08
2022-11-23T08:42:03.853Z,8.10
2022-11-23T08:43:03.810Z,8.12
2022-11-23T08:44:03.843Z,8.15
2022-11-23T08:45:03.790Z,8.22
2022-11-23T08:46:08.000Z,8.26
2022-11-23T08:47:03.777Z,8.33
2022-11-23T08:48:03.830Z,8.38
2022-11-23T08:49:03.737Z,8.44
2022-11-23T08:50:03.750Z,8.47
2022-11-23T08:51:03.706Z,8.56
2022-11-23T08:52:03.718Z,8.63
2022-11-23T08:53:03.672Z,8.71
2022-11-23T08:54:03.737Z,8.77
2022-11-23T08:55:03.690Z,8.84
2022-11-23T08:56:03.677Z,8.95
2022-11-23T08:57:03.637Z,9.04
2022-11-23T08:58:04.515Z,9.11
2022-11-23T08:59:03.583Z,9.18
2022-11-23T09:00:03.649Z,9.28
2022-11-23T09:01:03.652Z,9.35
2022-11-23T09:02:03.587Z,9.43
2022-11-23T09:03:03.566Z,9.50
2022-11-23T09:04:03.585Z,9.57
2022-11-23T09:05:03.528Z,9.54
2022-11-23T09:06:03.540Z,9.51
2022-11-23T09:07:03.514Z,9.48
2022-11-23T09:08:03.516Z,9.50
2022-11-23T09:09:03.459Z,9.51
2022-11-23T09:10:03.501Z,9.56
2022-11-23T09:11:03.437Z,9.61
2022-11-23T09:12:03.454Z,9.72
2022-11-23T09:13:03.414Z,9.86
2022-11-23T09:14:03.444Z,9.93
2022-11-23T09:15:03.398Z,10.02
2022-11-23T09:16:03.441Z,10.11
2022-11-23T09:17:03.370Z,10.11
2022-11-23T09:18:03.377Z,10.17
2022-11-23T09:19:03.342Z,10.22
2022-11-23T09:20:03.379Z,10.27
2022-11-23T09:21:03.318Z,10.29
2022-11-23T09:22:03.341Z,10.30
2022-11-23T09:23:03.278Z,10.26
2022-11-23T09:24:03.315Z,10.30
2022-11-23T09:25:03.411Z,10.29
2022-11-23T09:26:03.267Z,10.32
2022-11-23T09:27:03.226Z,10.41
2022-11-23T09:28:03.471Z,10.42
2022-11-23T09:29:03.206Z,10.45
2022-11-23T09:30:03.262Z,10.48
2022-11-23T09:31:03.179Z,10.61
2022-11-23T09:32:03.179Z,10.73
2022-11-23T09:33:03.170Z,10.86
2022-11-23T09:34:03.160Z,10.92
2022-11-23T09:35:03.155Z,10.97
2022-11-23T09:36:03.157Z,11.03
2022-11-23T09:37:03.128Z,11.10
2022-11-23T09:38:03.110Z,11.09
2022-11-23T09:39:03.081Z,10.97
2022-11-23T09:40:03.292Z,11.00
2022-11-23T09:41:03.058Z,11.03
2022-11-23T09:42:03.083Z,11.15
2022-11-23T09:43:03.126Z,11.32
2022-11-23T09:44:03.071Z,11.42
2022-11-23T09:45:02.990Z,11.52
2022-11-23T09:46:03.001Z,11.65
2022-11-23T09:47:02.977Z,11.79
2022-11-23T09:48:03.016Z,11.79
2022-11-23T09:49:02.952Z,11.78
2022-11-23T09:50:02.978Z,11.76
2022-11-23T09:51:02.926Z,11.80
2022-11-23T09:52:02.997Z,11.88
2022-11-23T09:53:02.888Z,11.98
2022-11-23T09:54:02.911Z,11.96
2022-11-23T09:55:02.884Z,11.96
2022-11-23T09:56:02.874Z,12.01
2022-11-23T09:57:02.836Z,12.01
2022-11-23T09:58:02.867Z,11.80
2022-11-23T09:59:02.820Z,11.60
2022-11-23T10:00:02.841Z,11.44
2022-11-23T10:01:02.774Z,11.27
2022-11-23T10:02:02.847Z,11.19
2022-11-23T10:03:02.759Z,11.19
2022-11-23T10:04:02.772Z,11.17
2022-11-23T10:05:02.746Z,11.18
2022-11-23T10:06:02.741Z,11.10
2022-11-23T10:07:02.773Z,11.00
2022-11-23T10:08:02.727Z,10.97
2022-11-23T10:09:02.672Z,10.86
2022-11-23T10:10:02.713Z,10.76
2022-11-23T10:11:02.653Z,10.63
2022-11-23T10:12:02.656Z,10.40
2022-11-23T10:13:02.640Z,10.33
2022-11-23T10:14:02.680Z,10.34
2022-11-23T10:15:02.593Z,10.38
2022-11-23T10:16:02.595Z,10.36
2022-11-23T10:17:02.610Z,10.40
2022-11-23T10:18:02.613Z,10.42
2022-11-23T10:19:02.584Z,10.41
2022-11-23T10:20:02.565Z,10.41
2022-11-23T10:21:02.534Z,10.44
2022-11-23T10:22:02.533Z,10.44
2022-11-23T10:23:02.519Z,10.45
2022-11-23T10:24:02.520Z,10.45
2022-11-23T10:25:02.473Z,10.48
2022-11-23T10:26:02.490Z,10.53
2022-11-23T10:27:02.499Z,10.59
2022-11-23T10:28:02.469Z,10.60
2022-11-23T10:29:02.426Z,10.60
2022-11-23T10:30:02.433Z,10.63
2022-11-23T10:31:02.416Z,10.51
2022-11-23T10:32:02.396Z,10.36
2022-11-23T10:33:02.370Z,10.30
2022-11-23T10:34:02.387Z,10.25
2022-11-23T10:35:02.340Z,10.18
2022-11-23T10:36:02.399Z,10.11
2022-11-23T10:37:02.308Z,10.12
2022-11-23T10:38:02.349Z,10.18
2022-11-23T10:39:02.324Z,10.20
2022-11-23T10:40:02.298Z,10.22
2022-11-23T10:41:02.280Z,10.22
2022-11-23T10:42:02.291Z,10.23
2022-11-23T10:43:02.219Z,10.20
2022-11-23T10:44:02.244Z,10.25
2022-11-23T10:45:02.251Z,10.25
2022-11-23T10:46:02.225Z,10.25
2022-11-23T10:47:02.216Z,10.27
2022-11-23T10:48:02.207Z,10.32
2022-11-23T10:49:02.156Z,10.34
2022-11-23T10:50:02.156Z,10.40
2022-11-23T10:51:02.127Z,10.42
2022-11-23T10:52:02.167Z,10.42
2022-11-23T10:53:02.098Z,10.41
2022-11-23T10:54:05.385Z,10.41
2022-11-23T10:55:02.117Z,10.41
2022-11-23T10:56:02.109Z,10.36
2022-11-23T10:57:02.041Z,10.36
2022-11-23T10:58:02.102Z,10.34
2022-11-23T10:59:02.046Z,10.33
2022-11-23T11:00:02.047Z,10.30
2022-11-23T11:01:01.981Z,10.30
2022-11-23T11:02:02.041Z,10.29
2022-11-23T11:03:02.005Z,10.33
2022-11-23T11:04:01.979Z,10.34
2022-11-23T11:05:01.957Z,10.34
2022-11-23T11:06:10.555Z,10.33
2022-11-23T11:07:01.942Z,10.34
2022-11-23T11:08:01.940Z,10.34
2022-11-23T11:09:03.679Z,10.38
2022-11-23T11:10:01.899Z,10.40
2022-11-23T11:11:01.863Z,10.41
2022-11-23T11:12:01.991Z,10.44
2022-11-23T11:13:01.866Z,10.45
2022-11-23T11:14:01.880Z,10.44
2022-11-23T11:15:10.339Z,10.41
2022-11-23T11:16:01.852Z,10.40
2022-11-23T11:17:01.822Z,10.38
2022-11-23T11:18:01.812Z,10.36
2022-11-23T11:19:01.840Z,10.33
2022-11-23T11:20:01.779Z,10.34
2022-11-23T11:21:01.769Z,10.36
2022-11-23T11:22:01.733Z,10.41
2022-11-23T11:23:01.732Z,10.45
2022-11-23T11:24:01.726Z,10.47
2022-11-23T11:25:01.699Z,10.47
2022-11-23T11:26:01.670Z,10.47
2022-11-23T11:27:01.678Z,10.45
2022-11-23T11:28:01.671Z,10.41
2022-11-23T11:29:01.648Z,10.42
2022-11-23T11:30:01.604Z,10.40
2022-11-23T11:31:01.644Z,10.40
2022-11-23T11:32:01.921Z,10.38
2022-11-23T11:33:01.591Z,10.34
2022-11-23T11:34:01.553Z,10.33
2022-11-23T11:35:01.604Z,10.33
2022-11-23T11:36:01.526Z,10.32
2022-11-23T11:37:01.560Z,10.33
2022-11-23T11:38:01.530Z,10.34
2022-11-23T11:39:17.708Z,10.38
2022-11-23T11:40:01.507Z,10.38
2022-11-23T11:41:01.523Z,10.40
2022-11-23T11:42:01.460Z,10.42
2022-11-23T11:43:01.455Z,10.44
2022-11-23T11:44:01.462Z,10.44
2022-11-23T11:45:01.463Z,10.45
2022-11-23T11:47:01.427Z,10.48
2022-11-23T11:48:01.421Z,10.53
2022-11-23T11:49:01.366Z,10.56
2022-11-23T11:50:01.373Z,10.60
2022-11-23T11:51:01.354Z,10.61
2022-11-23T11:52:01.354Z,10.63
2022-11-23T11:53:01.350Z,10.60
2022-11-23T11:54:01.321Z,10.60
2022-11-23T11:55:01.277Z,10.61
2022-11-23T11:56:01.282Z,10.67
2022-11-23T11:57:01.272Z,10.66
2022-11-23T11:58:01.304Z,10.66
2022-11-23T11:59:01.279Z,10.66
2022-11-23T12:00:01.240Z,10.64
2022-11-23T12:01:01.249Z,10.64
2022-11-23T12:02:01.245Z,10.67
2022-11-23T12:03:01.183Z,10.63
2022-11-23T12:04:01.189Z,10.63
2022-11-23T12:05:01.155Z,10.64
2022-11-23T12:06:01.150Z,10.64
2022-11-23T12:07:01.152Z,10.67
2022-11-23T12:08:01.120Z,10.68
2022-11-23T12:09:01.074Z,10.68
2022-11-23T12:10:01.122Z,10.67
2022-11-23T12:11:01.120Z,10.67
2022-11-23T12:12:01.070Z,10.70
2022-11-23T12:13:01.057Z,10.73
2022-11-23T12:14:01.063Z,10.74
2022-11-23T12:15:01.018Z,10.71
2022-11-23T12:16:01.024Z,10.73
2022-11-23T12:17:30.825Z,10.73
2022-11-23T12:18:01.017Z,10.71
2022-11-23T12:19:00.989Z,10.71
2022-11-23T12:20:00.961Z,10.74
2022-11-23T12:21:00.968Z,10.70
2022-11-23T12:22:00.966Z,10.70
2022-11-23T12:23:00.923Z,10.70
2022-11-23T12:24:00.937Z,10.68
2022-11-23T12:25:00.874Z,10.67
2022-11-23T12:26:00.935Z,10.64
2022-11-23T12:27:00.872Z,10.64
2022-11-23T12:28:00.862Z,10.66
2022-11-23T12:29:00.863Z,10.67
2022-11-23T12:30:00.883Z,10.68
2022-11-23T12:31:00.801Z,10.73
2022-11-23T12:32:00.835Z,10.78
2022-11-23T12:33:00.778Z,10.85
2022-11-23T12:34:00.782Z,10.86
2022-11-23T12:35:00.796Z,10.86
2022-11-23T12:36:00.799Z,10.86
2022-11-23T12:37:00.710Z,10.85
2022-11-23T12:38:00.729Z,10.84
2022-11-23T12:39:00.766Z,10.82
2022-11-23T12:40:00.774Z,10.79
2022-11-23T12:41:00.676Z,10.82
2022-11-23T12:42:00.697Z,10.85
2022-11-23T12:43:00.634Z,10.86
2022-11-23T12:44:00.664Z,10.86
2022-11-23T12:45:00.625Z,10.88
2022-11-23T12:46:00.725Z,10.86
2022-11-23T12:47:00.575Z,10.84
2022-11-23T12:48:00.594Z,10.82
2022-11-23T12:49:00.569Z,10.84
2022-11-23T12:50:00.580Z,10.84
2022-11-23T12:51:00.561Z,10.82
2022-11-23T12:52:00.602Z,10.79
2022-11-23T12:53:00.531Z,10.79
2022-11-23T12:54:00.705Z,10.79
2022-11-23T12:55:00.478Z,10.81
2022-11-23T12:56:00.508Z,10.81
2022-11-23T12:57:00.474Z,10.81
2022-11-23T12:58:00.617Z,10.79
2022-11-23T12:59:00.411Z,10.79
2022-11-23T13:00:00.444Z,10.79
2022-11-23T13:01:00.489Z,10.82
2022-11-23T13:02:00.535Z,10.85
2022-11-23T13:03:00.381Z,10.85
2022-11-23T13:04:00.406Z,10.86
2022-11-23T13:05:00.339Z,10.86
2022-11-23T13:06:00.372Z,10.86
2022-11-23T13:08:00.372Z,10.86
2022-11-23T13:09:00.288Z,10.86
2022-11-23T13:10:00.366Z,10.86
2022-11-23T13:11:00.262Z,10.86
2022-11-23T13:12:00.273Z,10.85